Frenchboro, ME (04635)

4:39 AM EST on January 18, 2017 (GMT -0500)
Goose Pond Rd | | Change Station

Elev 92 ft 44.16 °N, 68.42 °W | Updated 8 seconds ago

Overcast
Overcast
31.0 °F
Feels Like 20 °F
N
16.0
Wind Variable Wind from NE
Gusts 16.0 mph

Today
High -- | Low -- °F
--% Chance of Precip.
Yesterday
High -- | Low -- °F
Precip. -- in
Pressure 30.21 in
Visibility 10.0 miles
Clouds Mostly Cloudy 3100 ft
Mostly Cloudy 5500 ft
Overcast 9500 ft
Windchill 20 °F
Dew Point 26 °F
Humidity 81%
Rainfall 0.00 in
Snow Depth Not available.
7:03 AM 4:24 PM
Waning Gibbous, 65% visible
METAR KBHB 180856Z AUTO 05007KT 10SM BKN031 BKN055 OVC095 M04/M08 A3019 RMK AO2 SLP228 T10391083 58014 FZRANO
Pressure 30.21 in
Visibility 10.0 miles
Clouds Mostly Cloudy 3100 ft
Mostly Cloudy 5500 ft
Overcast 9500 ft
Windchill 20 °F
Dew Point 26 °F
Humidity 81%
Rainfall 0.00 in
Snow Depth Not available.
7:03 AM 4:24 PM
Waning Gibbous, 65% visible
METAR KBHB 180856Z AUTO 05007KT 10SM BKN031 BKN055 OVC095 M04/M08 A3019 RMK AO2 SLP228 T10391083 58014 FZRANO

Get Your Daily Forecast Email!

Thanks for signing up!

Be on the lookout for a verification email in your inbox.

You'll start receiving the daily forecast at 8 AM.

×

10-Day Weather Forecast

Almanac

Astronomy

Jan. 18, 2017 Rise Set
Actual Time
Civil Twilight
Nautical Twilight
Astronomical Twilight
Moon
Length of Visible Light
Length of Day
Tomorrow will be .
, % of the Moon is Illuminated

Today's Extremes

State Highs State Lows

Community

WunderPhotos

Upload Photos

1,962,540 photos uploaded!

WunderBlog® & News

Nearby

Air Quality

  Air Quality AQ Index Pollutant
Not available.

Snow Depth

Station Depth Elevation

Earthquake Activity

City Distance Mag. Time & Date
Minimum magnitude displayed is 2.5.

Coastal Water Temperatures

Place Temperature

Stations

Nearby Weather Stations

Station Location Temp. Windchill Dew Point Humidity Wind Precip. Elev Updated Type
                   

Watches & Warnings

There are currently no watches in effect.